sensor_id;sensor_type;location;lat;lon;timestamp;P1;durP1;ratioP1;P2;durP2;ratioP2
52730;SDS011;38624;53.242;6.974;2023-04-07T00:02:15;24.88;;;17.92;;
52730;SDS011;38624;53.242;6.974;2023-04-07T00:04:41;24.77;;;17.02;;
52730;SDS011;38624;53.242;6.974;2023-04-07T00:07:07;24.42;;;17.15;;
52730;SDS011;38624;53.242;6.974;2023-04-07T00:09:33;25.20;;;17.00;;
52730;SDS011;38624;53.242;6.974;2023-04-07T00:11:59;24.13;;;16.77;;
52730;SDS011;38624;53.242;6.974;2023-04-07T00:14:27;21.05;;;15.27;;
52730;SDS011;38624;53.242;6.974;2023-04-07T00:16:53;24.02;;;16.27;;
52730;SDS011;38624;53.242;6.974;2023-04-07T00:19:19;23.42;;;16.52;;
52730;SDS011;38624;53.242;6.974;2023-04-07T00:21:44;21.23;;;15.35;;
52730;SDS011;38624;53.242;6.974;2023-04-07T00:24:10;22.38;;;15.25;;
52730;SDS011;38624;53.242;6.974;2023-04-07T00:26:36;22.10;;;16.08;;
52730;SDS011;38624;53.242;6.974;2023-04-07T00:29:02;21.10;;;15.27;;
52730;SDS011;38624;53.242;6.974;2023-04-07T00:31:28;21.25;;;15.75;;
52730;SDS011;38624;53.242;6.974;2023-04-07T00:33:53;24.33;;;15.30;;
52730;SDS011;38624;53.242;6.974;2023-04-07T00:36:21;19.20;;;14.32;;
52730;SDS011;38624;53.242;6.974;2023-04-07T00:38:47;20.40;;;14.73;;
52730;SDS011;38624;53.242;6.974;2023-04-07T00:41:13;18.50;;;13.70;;
52730;SDS011;38624;53.242;6.974;2023-04-07T00:43:38;18.30;;;13.93;;
52730;SDS011;38624;53.242;6.974;2023-04-07T00:46:04;18.27;;;13.98;;
52730;SDS011;38624;53.242;6.974;2023-04-07T00:48:30;19.40;;;13.85;;
52730;SDS011;38624;53.242;6.974;2023-04-07T00:50:56;17.00;;;12.60;;
52730;SDS011;38624;53.242;6.974;2023-04-07T00:53:21;18.35;;;13.77;;
52730;SDS011;38624;53.242;6.974;2023-04-07T00:55:47;18.88;;;14.00;;
52730;SDS011;38624;53.242;6.974;2023-04-07T00:58:13;16.95;;;12.93;;
52730;SDS011;38624;53.242;6.974;2023-04-07T01:00:50;19.05;;;14.63;;
52730;SDS011;38624;53.242;6.974;2023-04-07T01:03:30;20.55;;;14.20;;
52730;SDS011;38624;53.242;6.974;2023-04-07T01:06:03;17.70;;;13.10;;
52730;SDS011;38624;53.242;6.974;2023-04-07T01:14:05;19.83;;;13.45;;
52730;SDS011;38624;53.242;6.974;2023-04-07T01:16:38;17.98;;;13.23;;
52730;SDS011;38624;53.242;6.974;2023-04-07T01:22:18;19.70;;;14.13;;
52730;SDS011;38624;53.242;6.974;2023-04-07T01:27:41;17.95;;;13.73;;
52730;SDS011;38624;53.242;6.974;2023-04-07T01:30:28;18.75;;;14.15;;
52730;SDS011;38624;53.242;6.974;2023-04-07T01:33:00;19.20;;;14.05;;
52730;SDS011;38624;53.242;6.974;2023-04-07T01:35:28;17.83;;;13.15;;
52730;SDS011;38624;53.242;6.974;2023-04-07T01:37:56;19.85;;;14.40;;
52730;SDS011;38624;53.242;6.974;2023-04-07T01:40:24;19.35;;;14.02;;
52730;SDS011;38624;53.242;6.974;2023-04-07T01:42:50;16.83;;;12.43;;
52730;SDS011;38624;53.242;6.974;2023-04-07T01:45:17;17.33;;;13.40;;
52730;SDS011;38624;53.242;6.974;2023-04-07T01:47:45;20.30;;;14.80;;
52730;SDS011;38624;53.242;6.974;2023-04-07T01:50:11;18.60;;;14.15;;
52730;SDS011;38624;53.242;6.974;2023-04-07T01:52:37;19.27;;;13.07;;
52730;SDS011;38624;53.242;6.974;2023-04-07T01:55:04;22.02;;;14.88;;
52730;SDS011;38624;53.242;6.974;2023-04-07T01:57:31;19.35;;;14.63;;
52730;SDS011;38624;53.242;6.974;2023-04-07T01:59:57;19.20;;;14.57;;
52730;SDS011;38624;53.242;6.974;2023-04-07T02:02:23;19.40;;;14.48;;
52730;SDS011;38624;53.242;6.974;2023-04-07T02:04:56;17.35;;;13.55;;
52730;SDS011;38624;53.242;6.974;2023-04-07T02:07:48;19.27;;;13.32;;
52730;SDS011;38624;53.242;6.974;2023-04-07T02:10:23;16.13;;;13.05;;
52730;SDS011;38624;53.242;6.974;2023-04-07T02:12:51;17.92;;;13.93;;
52730;SDS011;38624;53.242;6.974;2023-04-07T02:15:18;19.55;;;13.63;;
52730;SDS011;38624;53.242;6.974;2023-04-07T02:17:48;19.20;;;14.13;;
52730;SDS011;38624;53.242;6.974;2023-04-07T02:20:16;17.88;;;13.43;;
52730;SDS011;38624;53.242;6.974;2023-04-07T02:22:42;17.88;;;13.13;;
52730;SDS011;38624;53.242;6.974;2023-04-07T02:25:24;19.23;;;13.60;;
52730;SDS011;38624;53.242;6.974;2023-04-07T02:27:51;19.00;;;14.20;;
52730;SDS011;38624;53.242;6.974;2023-04-07T02:30:18;20.08;;;14.50;;
52730;SDS011;38624;53.242;6.974;2023-04-07T02:32:44;19.98;;;14.85;;
52730;SDS011;38624;53.242;6.974;2023-04-07T02:35:10;20.70;;;15.23;;
52730;SDS011;38624;53.242;6.974;2023-04-07T02:37:36;19.65;;;14.75;;
52730;SDS011;38624;53.242;6.974;2023-04-07T02:40:03;19.95;;;15.63;;
52730;SDS011;38624;53.242;6.974;2023-04-07T02:44:55;20.67;;;15.00;;
52730;SDS011;38624;53.242;6.974;2023-04-07T02:47:21;20.70;;;14.73;;
52730;SDS011;38624;53.242;6.974;2023-04-07T02:49:47;19.48;;;14.85;;
52730;SDS011;38624;53.242;6.974;2023-04-07T02:52:12;19.77;;;13.82;;
52730;SDS011;38624;53.242;6.974;2023-04-07T02:54:38;19.98;;;15.40;;
52730;SDS011;38624;53.242;6.974;2023-04-07T02:57:04;18.90;;;14.52;;
52730;SDS011;38624;53.242;6.974;2023-04-07T02:59:30;22.63;;;15.27;;
52730;SDS011;38624;53.242;6.974;2023-04-07T03:01:55;20.10;;;15.40;;
52730;SDS011;38624;53.242;6.974;2023-04-07T03:04:21;22.58;;;15.10;;
52730;SDS011;38624;53.242;6.974;2023-04-07T03:06:47;20.90;;;15.15;;
52730;SDS011;38624;53.242;6.974;2023-04-07T03:09:13;21.80;;;16.05;;
52730;SDS011;38624;53.242;6.974;2023-04-07T03:11:38;21.42;;;15.15;;
52730;SDS011;38624;53.242;6.974;2023-04-07T03:14:05;20.38;;;15.13;;
52730;SDS011;38624;53.242;6.974;2023-04-07T03:16:31;17.95;;;13.73;;
52730;SDS011;38624;53.242;6.974;2023-04-07T03:18:57;19.38;;;14.75;;
52730;SDS011;38624;53.242;6.974;2023-04-07T03:21:23;18.88;;;14.38;;
52730;SDS011;38624;53.242;6.974;2023-04-07T03:23:49;20.05;;;14.40;;
52730;SDS011;38624;53.242;6.974;2023-04-07T03:26:14;21.50;;;14.82;;
52730;SDS011;38624;53.242;6.974;2023-04-07T03:28:40;21.58;;;14.52;;
52730;SDS011;38624;53.242;6.974;2023-04-07T03:31:06;16.88;;;13.85;;
52730;SDS011;38624;53.242;6.974;2023-04-07T03:33:32;20.10;;;14.38;;
52730;SDS011;38624;53.242;6.974;2023-04-07T03:35:57;19.23;;;14.27;;
52730;SDS011;38624;53.242;6.974;2023-04-07T03:38:23;19.63;;;13.77;;
52730;SDS011;38624;53.242;6.974;2023-04-07T03:40:50;18.15;;;13.35;;
52730;SDS011;38624;53.242;6.974;2023-04-07T03:43:15;18.60;;;13.60;;
52730;SDS011;38624;53.242;6.974;2023-04-07T03:45:41;20.13;;;14.13;;
52730;SDS011;38624;53.242;6.974;2023-04-07T03:48:07;19.20;;;13.70;;
52730;SDS011;38624;53.242;6.974;2023-04-07T03:50:36;19.75;;;13.80;;
52730;SDS011;38624;53.242;6.974;2023-04-07T03:53:02;18.90;;;14.15;;
52730;SDS011;38624;53.242;6.974;2023-04-07T03:55:28;17.90;;;13.93;;
52730;SDS011;38624;53.242;6.974;2023-04-07T03:57:54;20.93;;;15.27;;
52730;SDS011;38624;53.242;6.974;2023-04-07T04:00:20;19.98;;;14.73;;
52730;SDS011;38624;53.242;6.974;2023-04-07T04:02:46;18.90;;;14.23;;
52730;SDS011;38624;53.242;6.974;2023-04-07T04:05:12;20.27;;;14.45;;
52730;SDS011;38624;53.242;6.974;2023-04-07T04:07:37;20.50;;;14.77;;
52730;SDS011;38624;53.242;6.974;2023-04-07T04:10:03;21.13;;;14.80;;
52730;SDS011;38624;53.242;6.974;2023-04-07T04:12:30;19.73;;;14.13;;
52730;SDS011;38624;53.242;6.974;2023-04-07T04:14:55;25.10;;;15.75;;
52730;SDS011;38624;53.242;6.974;2023-04-07T04:17:21;19.42;;;14.85;;
52730;SDS011;38624;53.242;6.974;2023-04-07T04:19:46;18.60;;;14.57;;
52730;SDS011;38624;53.242;6.974;2023-04-07T04:22:12;19.27;;;14.80;;
52730;SDS011;38624;53.242;6.974;2023-04-07T04:24:38;20.48;;;14.80;;
52730;SDS011;38624;53.242;6.974;2023-04-07T04:27:05;22.75;;;15.73;;
52730;SDS011;38624;53.242;6.974;2023-04-07T04:29:32;20.83;;;15.07;;
52730;SDS011;38624;53.242;6.974;2023-04-07T04:31:57;23.13;;;15.40;;
52730;SDS011;38624;53.242;6.974;2023-04-07T04:34:23;22.10;;;15.95;;
52730;SDS011;38624;53.242;6.974;2023-04-07T04:36:49;20.55;;;14.98;;
52730;SDS011;38624;53.242;6.974;2023-04-07T04:39:15;24.08;;;16.48;;
52730;SDS011;38624;53.242;6.974;2023-04-07T04:41:40;22.33;;;16.45;;
52730;SDS011;38624;53.242;6.974;2023-04-07T04:44:06;23.05;;;16.77;;
52730;SDS011;38624;53.242;6.974;2023-04-07T04:46:32;21.80;;;16.58;;
52730;SDS011;38624;53.242;6.974;2023-04-07T04:48:57;22.05;;;16.55;;
52730;SDS011;38624;53.242;6.974;2023-04-07T04:51:23;23.42;;;15.88;;
52730;SDS011;38624;53.242;6.974;2023-04-07T04:53:50;22.63;;;16.35;;
52730;SDS011;38624;53.242;6.974;2023-04-07T04:56:15;27.17;;;16.90;;
52730;SDS011;38624;53.242;6.974;2023-04-07T04:58:41;21.63;;;15.98;;
52730;SDS011;38624;53.242;6.974;2023-04-07T05:01:10;21.27;;;16.38;;
52730;SDS011;38624;53.242;6.974;2023-04-07T05:03:36;24.88;;;16.48;;
52730;SDS011;38624;53.242;6.974;2023-04-07T05:06:02;21.50;;;15.93;;
52730;SDS011;38624;53.242;6.974;2023-04-07T05:08:28;24.80;;;16.95;;
52730;SDS011;38624;53.242;6.974;2023-04-07T05:10:54;23.63;;;17.20;;
52730;SDS011;38624;53.242;6.974;2023-04-07T05:13:20;23.85;;;17.55;;
52730;SDS011;38624;53.242;6.974;2023-04-07T05:15:45;22.83;;;16.48;;
52730;SDS011;38624;53.242;6.974;2023-04-07T05:18:11;23.00;;;16.48;;
52730;SDS011;38624;53.242;6.974;2023-04-07T05:20:37;24.53;;;17.10;;
52730;SDS011;38624;53.242;6.974;2023-04-07T05:23:03;25.15;;;16.90;;
52730;SDS011;38624;53.242;6.974;2023-04-07T05:25:29;24.92;;;17.58;;
52730;SDS011;38624;53.242;6.974;2023-04-07T05:30:22;27.50;;;18.27;;
52730;SDS011;38624;53.242;6.974;2023-04-07T05:32:47;24.35;;;17.65;;
52730;SDS011;38624;53.242;6.974;2023-04-07T05:35:13;23.27;;;17.25;;
52730;SDS011;38624;53.242;6.974;2023-04-07T05:37:39;29.75;;;18.52;;
52730;SDS011;38624;53.242;6.974;2023-04-07T05:40:05;26.08;;;18.13;;
52730;SDS011;38624;53.242;6.974;2023-04-07T05:42:31;25.27;;;18.40;;
52730;SDS011;38624;53.242;6.974;2023-04-07T05:44:57;26.20;;;18.85;;
52730;SDS011;38624;53.242;6.974;2023-04-07T05:47:23;25.00;;;18.65;;
52730;SDS011;38624;53.242;6.974;2023-04-07T05:49:49;30.13;;;19.63;;
52730;SDS011;38624;53.242;6.974;2023-04-07T05:52:15;24.83;;;18.27;;
52730;SDS011;38624;53.242;6.974;2023-04-07T05:54:40;24.65;;;18.35;;
52730;SDS011;38624;53.242;6.974;2023-04-07T05:57:06;27.73;;;18.27;;
52730;SDS011;38624;53.242;6.974;2023-04-07T05:59:33;25.77;;;18.63;;
52730;SDS011;38624;53.242;6.974;2023-04-07T06:01:59;26.58;;;17.90;;
52730;SDS011;38624;53.242;6.974;2023-04-07T06:04:25;25.45;;;18.70;;
52730;SDS011;38624;53.242;6.974;2023-04-07T06:06:50;25.35;;;17.77;;
52730;SDS011;38624;53.242;6.974;2023-04-07T06:09:19;28.33;;;18.90;;
52730;SDS011;38624;53.242;6.974;2023-04-07T06:11:48;25.60;;;18.27;;
52730;SDS011;38624;53.242;6.974;2023-04-07T06:14:15;26.35;;;17.95;;
52730;SDS011;38624;53.242;6.974;2023-04-07T06:19:07;26.67;;;17.77;;
52730;SDS011;38624;53.242;6.974;2023-04-07T06:21:33;26.27;;;18.85;;
52730;SDS011;38624;53.242;6.974;2023-04-07T06:23:59;25.25;;;18.23;;
52730;SDS011;38624;53.242;6.974;2023-04-07T06:26:24;27.02;;;18.33;;
52730;SDS011;38624;53.242;6.974;2023-04-07T06:28:51;25.88;;;19.42;;
52730;SDS011;38624;53.242;6.974;2023-04-07T06:31:17;27.75;;;18.42;;
52730;SDS011;38624;53.242;6.974;2023-04-07T06:33:43;25.52;;;19.05;;
52730;SDS011;38624;53.242;6.974;2023-04-07T06:36:10;27.58;;;20.45;;
52730;SDS011;38624;53.242;6.974;2023-04-07T06:38:36;25.88;;;18.80;;
52730;SDS011;38624;53.242;6.974;2023-04-07T06:41:01;25.50;;;18.65;;
52730;SDS011;38624;53.242;6.974;2023-04-07T06:43:27;25.10;;;18.45;;
52730;SDS011;38624;53.242;6.974;2023-04-07T06:45:52;25.40;;;18.02;;
52730;SDS011;38624;53.242;6.974;2023-04-07T06:48:18;24.55;;;19.27;;
52730;SDS011;38624;53.242;6.974;2023-04-07T06:50:50;27.27;;;19.75;;
52730;SDS011;38624;53.242;6.974;2023-04-07T06:53:16;29.88;;;21.00;;
52730;SDS011;38624;53.242;6.974;2023-04-07T06:55:42;31.52;;;22.35;;
52730;SDS011;38624;53.242;6.974;2023-04-07T06:58:08;32.88;;;22.85;;
52730;SDS011;38624;53.242;6.974;2023-04-07T07:00:34;30.98;;;22.42;;
52730;SDS011;38624;53.242;6.974;2023-04-07T07:03:00;33.10;;;22.95;;
52730;SDS011;38624;53.242;6.974;2023-04-07T07:05:26;30.83;;;22.98;;
52730;SDS011;38624;53.242;6.974;2023-04-07T07:07:51;32.42;;;23.58;;
52730;SDS011;38624;53.242;6.974;2023-04-07T07:10:17;31.70;;;23.95;;
52730;SDS011;38624;53.242;6.974;2023-04-07T07:12:44;30.58;;;23.00;;
52730;SDS011;38624;53.242;6.974;2023-04-07T07:15:10;31.65;;;22.98;;
52730;SDS011;38624;53.242;6.974;2023-04-07T07:17:36;29.67;;;21.50;;
52730;SDS011;38624;53.242;6.974;2023-04-07T07:20:01;30.98;;;22.30;;
52730;SDS011;38624;53.242;6.974;2023-04-07T07:22:27;33.08;;;22.60;;
52730;SDS011;38624;53.242;6.974;2023-04-07T07:24:53;31.73;;;21.58;;
52730;SDS011;38624;53.242;6.974;2023-04-07T07:27:18;31.35;;;20.73;;
52730;SDS011;38624;53.242;6.974;2023-04-07T07:29:44;27.77;;;20.55;;
52730;SDS011;38624;53.242;6.974;2023-04-07T07:32:10;33.83;;;20.42;;
52730;SDS011;38624;53.242;6.974;2023-04-07T07:34:36;29.80;;;21.85;;
52730;SDS011;38624;53.242;6.974;2023-04-07T07:37:01;27.10;;;20.90;;
52730;SDS011;38624;53.242;6.974;2023-04-07T07:39:27;26.75;;;20.65;;
52730;SDS011;38624;53.242;6.974;2023-04-07T07:41:54;26.25;;;20.38;;
52730;SDS011;38624;53.242;6.974;2023-04-07T07:44:20;29.38;;;20.45;;
52730;SDS011;38624;53.242;6.974;2023-04-07T07:46:47;28.42;;;19.92;;
52730;SDS011;38624;53.242;6.974;2023-04-07T07:49:13;23.30;;;17.77;;
52730;SDS011;38624;53.242;6.974;2023-04-07T07:51:39;25.25;;;17.52;;
52730;SDS011;38624;53.242;6.974;2023-04-07T07:54:05;20.48;;;14.82;;
52730;SDS011;38624;53.242;6.974;2023-04-07T07:56:31;26.50;;;19.02;;
52730;SDS011;38624;53.242;6.974;2023-04-07T07:58:56;26.90;;;19.13;;
52730;SDS011;38624;53.242;6.974;2023-04-07T08:01:23;21.88;;;16.92;;
52730;SDS011;38624;53.242;6.974;2023-04-07T08:03:48;17.42;;;11.38;;
52730;SDS011;38624;53.242;6.974;2023-04-07T08:06:14;17.77;;;12.65;;
52730;SDS011;38624;53.242;6.974;2023-04-07T08:08:40;18.33;;;13.98;;
52730;SDS011;38624;53.242;6.974;2023-04-07T08:11:06;26.83;;;18.42;;
52730;SDS011;38624;53.242;6.974;2023-04-07T08:13:32;23.40;;;15.48;;
52730;SDS011;38624;53.242;6.974;2023-04-07T08:15:58;21.53;;;16.03;;
52730;SDS011;38624;53.242;6.974;2023-04-07T08:18:23;20.67;;;15.77;;
52730;SDS011;38624;53.242;6.974;2023-04-07T08:20:49;18.38;;;13.85;;
52730;SDS011;38624;53.242;6.974;2023-04-07T08:23:15;16.45;;;12.18;;
52730;SDS011;38624;53.242;6.974;2023-04-07T08:25:41;18.67;;;14.65;;
52730;SDS011;38624;53.242;6.974;2023-04-07T08:28:07;17.67;;;13.57;;
52730;SDS011;38624;53.242;6.974;2023-04-07T08:30:33;21.80;;;14.38;;
52730;SDS011;38624;53.242;6.974;2023-04-07T08:32:58;17.17;;;13.63;;
52730;SDS011;38624;53.242;6.974;2023-04-07T08:35:24;17.52;;;13.25;;
52730;SDS011;38624;53.242;6.974;2023-04-07T08:37:50;20.35;;;13.77;;
52730;SDS011;38624;53.242;6.974;2023-04-07T08:40:16;18.92;;;14.13;;
52730;SDS011;38624;53.242;6.974;2023-04-07T08:42:42;17.27;;;13.32;;
52730;SDS011;38624;53.242;6.974;2023-04-07T08:45:14;19.60;;;13.70;;
52730;SDS011;38624;53.242;6.974;2023-04-07T08:47:41;18.52;;;13.85;;
52730;SDS011;38624;53.242;6.974;2023-04-07T08:50:08;19.48;;;13.90;;
52730;SDS011;38624;53.242;6.974;2023-04-07T08:52:40;17.40;;;13.60;;
52730;SDS011;38624;53.242;6.974;2023-04-07T08:55:09;18.52;;;12.18;;
52730;SDS011;38624;53.242;6.974;2023-04-07T08:57:35;15.40;;;12.10;;
52730;SDS011;38624;53.242;6.974;2023-04-07T09:00:01;14.25;;;11.10;;
52730;SDS011;38624;53.242;6.974;2023-04-07T09:02:32;16.08;;;10.95;;
52730;SDS011;38624;53.242;6.974;2023-04-07T09:04:58;16.38;;;13.27;;
52730;SDS011;38624;53.242;6.974;2023-04-07T09:07:25;15.65;;;12.55;;
52730;SDS011;38624;53.242;6.974;2023-04-07T09:09:50;18.00;;;12.43;;
52730;SDS011;38624;53.242;6.974;2023-04-07T09:12:16;17.10;;;12.38;;
52730;SDS011;38624;53.242;6.974;2023-04-07T09:14:42;15.07;;;11.98;;
52730;SDS011;38624;53.242;6.974;2023-04-07T09:17:08;15.38;;;12.10;;
52730;SDS011;38624;53.242;6.974;2023-04-07T09:19:33;14.82;;;11.50;;
52730;SDS011;38624;53.242;6.974;2023-04-07T09:22:06;13.80;;;11.20;;
52730;SDS011;38624;53.242;6.974;2023-04-07T09:24:32;15.02;;;12.25;;
52730;SDS011;38624;53.242;6.974;2023-04-07T09:27:07;14.93;;;12.25;;
52730;SDS011;38624;53.242;6.974;2023-04-07T09:29:41;17.13;;;12.27;;
52730;SDS011;38624;53.242;6.974;2023-04-07T09:32:08;16.02;;;11.75;;
52730;SDS011;38624;53.242;6.974;2023-04-07T09:34:35;15.02;;;11.93;;
52730;SDS011;38624;53.242;6.974;2023-04-07T09:37:02;14.07;;;9.77;;
52730;SDS011;38624;53.242;6.974;2023-04-07T09:39:30;13.15;;;10.70;;
52730;SDS011;38624;53.242;6.974;2023-04-07T09:41:56;13.57;;;10.00;;
52730;SDS011;38624;53.242;6.974;2023-04-07T09:44:22;11.27;;;7.83;;
52730;SDS011;38624;53.242;6.974;2023-04-07T09:46:55;15.60;;;9.52;;
52730;SDS011;38624;53.242;6.974;2023-04-07T09:49:22;12.07;;;9.55;;
52730;SDS011;38624;53.242;6.974;2023-04-07T09:51:56;13.13;;;9.65;;
52730;SDS011;38624;53.242;6.974;2023-04-07T09:54:37;14.02;;;9.45;;
52730;SDS011;38624;53.242;6.974;2023-04-07T09:57:05;12.52;;;9.02;;
52730;SDS011;38624;53.242;6.974;2023-04-07T09:59:36;12.02;;;9.63;;
52730;SDS011;38624;53.242;6.974;2023-04-07T10:02:03;14.73;;;9.65;;
52730;SDS011;38624;53.242;6.974;2023-04-07T10:04:30;16.05;;;9.85;;
52730;SDS011;38624;53.242;6.974;2023-04-07T10:06:56;11.97;;;9.30;;
52730;SDS011;38624;53.242;6.974;2023-04-07T10:09:25;11.38;;;9.20;;
52730;SDS011;38624;53.242;6.974;2023-04-07T10:11:52;11.32;;;8.95;;
52730;SDS011;38624;53.242;6.974;2023-04-07T10:14:19;11.30;;;9.15;;
52730;SDS011;38624;53.242;6.974;2023-04-07T10:16:46;12.73;;;9.10;;
52730;SDS011;38624;53.242;6.974;2023-04-07T10:19:13;11.48;;;9.60;;
52730;SDS011;38624;53.242;6.974;2023-04-07T10:21:39;12.85;;;9.43;;
52730;SDS011;38624;53.242;6.974;2023-04-07T10:26:55;13.25;;;9.52;;
52730;SDS011;38624;53.242;6.974;2023-04-07T10:29:26;12.10;;;9.30;;
52730;SDS011;38624;53.242;6.974;2023-04-07T10:31:58;16.27;;;10.32;;
52730;SDS011;38624;53.242;6.974;2023-04-07T10:37:20;16.08;;;9.25;;
52730;SDS011;38624;53.242;6.974;2023-04-07T10:39:47;16.00;;;10.43;;
52730;SDS011;38624;53.242;6.974;2023-04-07T10:44:58;12.93;;;9.65;;
52730;SDS011;38624;53.242;6.974;2023-04-07T10:47:24;13.60;;;9.43;;
52730;SDS011;38624;53.242;6.974;2023-04-07T10:53:04;11.93;;;8.82;;
52730;SDS011;38624;53.242;6.974;2023-04-07T10:55:37;12.60;;;8.70;;
52730;SDS011;38624;53.242;6.974;2023-04-07T11:03:33;12.75;;;9.05;;
52730;SDS011;38624;53.242;6.974;2023-04-07T11:06:04;14.00;;;9.18;;
52730;SDS011;38624;53.242;6.974;2023-04-07T11:11:04;9.77;;;8.60;;
52730;SDS011;38624;53.242;6.974;2023-04-07T11:13:44;11.25;;;8.77;;
52730;SDS011;38624;53.242;6.974;2023-04-07T11:16:11;10.80;;;8.80;;
52730;SDS011;38624;53.242;6.974;2023-04-07T11:21:04;11.45;;;9.38;;
52730;SDS011;38624;53.242;6.974;2023-04-07T11:23:40;11.13;;;8.52;;
52730;SDS011;38624;53.242;6.974;2023-04-07T11:26:08;12.82;;;8.63;;
52730;SDS011;38624;53.242;6.974;2023-04-07T11:28:43;9.07;;;7.82;;
52730;SDS011;38624;53.242;6.974;2023-04-07T11:31:11;10.27;;;7.97;;
52730;SDS011;38624;53.242;6.974;2023-04-07T11:33:36;9.90;;;8.43;;
52730;SDS011;38624;53.242;6.974;2023-04-07T11:36:05;11.40;;;7.90;;
52730;SDS011;38624;53.242;6.974;2023-04-07T11:38:35;7.72;;;6.93;;
52730;SDS011;38624;53.242;6.974;2023-04-07T11:41:12;8.75;;;7.32;;
52730;SDS011;38624;53.242;6.974;2023-04-07T11:43:39;9.50;;;7.13;;
52730;SDS011;38624;53.242;6.974;2023-04-07T11:46:15;10.10;;;7.43;;
52730;SDS011;38624;53.242;6.974;2023-04-07T11:48:43;10.40;;;8.52;;
52730;SDS011;38624;53.242;6.974;2023-04-07T11:51:18;14.02;;;8.50;;
52730;SDS011;38624;53.242;6.974;2023-04-07T11:53:55;9.32;;;8.10;;
52730;SDS011;38624;53.242;6.974;2023-04-07T11:56:21;13.02;;;7.82;;
52730;SDS011;38624;53.242;6.974;2023-04-07T11:58:50;11.43;;;9.02;;
52730;SDS011;38624;53.242;6.974;2023-04-07T12:01:17;11.23;;;9.80;;
52730;SDS011;38624;53.242;6.974;2023-04-07T12:04:00;12.15;;;10.18;;
52730;SDS011;38624;53.242;6.974;2023-04-07T12:06:33;11.77;;;9.60;;
52730;SDS011;38624;53.242;6.974;2023-04-07T12:09:02;16.00;;;9.93;;
52730;SDS011;38624;53.242;6.974;2023-04-07T12:11:32;11.38;;;9.55;;
52730;SDS011;38624;53.242;6.974;2023-04-07T12:16:24;11.10;;;8.48;;
52730;SDS011;38624;53.242;6.974;2023-04-07T12:18:51;12.88;;;10.02;;
52730;SDS011;38624;53.242;6.974;2023-04-07T12:21:17;11.77;;;10.05;;
52730;SDS011;38624;53.242;6.974;2023-04-07T12:23:43;14.20;;;11.20;;
52730;SDS011;38624;53.242;6.974;2023-04-07T12:26:10;12.63;;;10.35;;
52730;SDS011;38624;53.242;6.974;2023-04-07T12:28:36;13.57;;;10.15;;
52730;SDS011;38624;53.242;6.974;2023-04-07T12:31:02;16.02;;;10.05;;
52730;SDS011;38624;53.242;6.974;2023-04-07T12:33:28;13.32;;;11.10;;
52730;SDS011;38624;53.242;6.974;2023-04-07T12:35:54;11.23;;;9.02;;
52730;SDS011;38624;53.242;6.974;2023-04-07T12:40:46;11.98;;;10.63;;
52730;SDS011;38624;53.242;6.974;2023-04-07T12:43:12;14.53;;;10.17;;
52730;SDS011;38624;53.242;6.974;2023-04-07T12:45:38;13.70;;;10.47;;
52730;SDS011;38624;53.242;6.974;2023-04-07T12:48:03;12.43;;;9.97;;
52730;SDS011;38624;53.242;6.974;2023-04-07T12:50:30;16.33;;;11.07;;
52730;SDS011;38624;53.242;6.974;2023-04-07T12:52:56;16.38;;;10.95;;
52730;SDS011;38624;53.242;6.974;2023-04-07T12:55:24;18.05;;;11.35;;
52730;SDS011;38624;53.242;6.974;2023-04-07T12:57:49;13.95;;;11.50;;
52730;SDS011;38624;53.242;6.974;2023-04-07T13:00:15;14.43;;;10.77;;
52730;SDS011;38624;53.242;6.974;2023-04-07T13:02:41;14.33;;;11.50;;
52730;SDS011;38624;53.242;6.974;2023-04-07T13:05:07;12.85;;;10.95;;
52730;SDS011;38624;53.242;6.974;2023-04-07T13:07:33;14.38;;;11.20;;
52730;SDS011;38624;53.242;6.974;2023-04-07T13:10:00;14.60;;;12.07;;
52730;SDS011;38624;53.242;6.974;2023-04-07T13:12:26;14.27;;;10.85;;
52730;SDS011;38624;53.242;6.974;2023-04-07T13:14:52;13.53;;;10.80;;
52730;SDS011;38624;53.242;6.974;2023-04-07T13:17:18;14.57;;;11.33;;
52730;SDS011;38624;53.242;6.974;2023-04-07T13:19:44;14.80;;;11.30;;
52730;SDS011;38624;53.242;6.974;2023-04-07T13:22:12;14.32;;;10.40;;
52730;SDS011;38624;53.242;6.974;2023-04-07T13:24:38;14.73;;;11.63;;
52730;SDS011;38624;53.242;6.974;2023-04-07T13:27:04;16.50;;;11.90;;
52730;SDS011;38624;53.242;6.974;2023-04-07T13:29:30;15.63;;;10.90;;
52730;SDS011;38624;53.242;6.974;2023-04-07T13:32:06;14.80;;;12.00;;
52730;SDS011;38624;53.242;6.974;2023-04-07T13:34:35;18.08;;;11.00;;
52730;SDS011;38624;53.242;6.974;2023-04-07T13:37:01;14.30;;;11.63;;
52730;SDS011;38624;53.242;6.974;2023-04-07T13:39:28;13.75;;;11.13;;
52730;SDS011;38624;53.242;6.974;2023-04-07T13:44:20;15.85;;;11.02;;
52730;SDS011;38624;53.242;6.974;2023-04-07T13:46:46;15.60;;;11.45;;
52730;SDS011;38624;53.242;6.974;2023-04-07T13:49:12;15.85;;;11.35;;
52730;SDS011;38624;53.242;6.974;2023-04-07T13:51:41;12.88;;;10.70;;
52730;SDS011;38624;53.242;6.974;2023-04-07T13:54:07;14.73;;;10.40;;
52730;SDS011;38624;53.242;6.974;2023-04-07T13:56:33;12.82;;;9.98;;
52730;SDS011;38624;53.242;6.974;2023-04-07T13:59:05;13.85;;;11.07;;
52730;SDS011;38624;53.242;6.974;2023-04-07T14:01:32;14.07;;;10.00;;
52730;SDS011;38624;53.242;6.974;2023-04-07T14:03:59;12.82;;;9.80;;
52730;SDS011;38624;53.242;6.974;2023-04-07T14:06:28;15.82;;;10.80;;
52730;SDS011;38624;53.242;6.974;2023-04-07T14:08:55;12.77;;;10.40;;
52730;SDS011;38624;53.242;6.974;2023-04-07T14:13:48;13.98;;;10.02;;
52730;SDS011;38624;53.242;6.974;2023-04-07T14:16:15;13.57;;;9.88;;
52730;SDS011;38624;53.242;6.974;2023-04-07T14:18:41;12.55;;;10.48;;
52730;SDS011;38624;53.242;6.974;2023-04-07T14:21:07;11.98;;;10.15;;
52730;SDS011;38624;53.242;6.974;2023-04-07T14:23:33;13.15;;;9.45;;
52730;SDS011;38624;53.242;6.974;2023-04-07T14:25:59;12.73;;;9.50;;
52730;SDS011;38624;53.242;6.974;2023-04-07T14:28:26;11.15;;;9.60;;
52730;SDS011;38624;53.242;6.974;2023-04-07T14:30:52;10.65;;;8.77;;
52730;SDS011;38624;53.242;6.974;2023-04-07T14:33:19;11.13;;;9.20;;
52730;SDS011;38624;53.242;6.974;2023-04-07T14:35:46;12.82;;;8.98;;
52730;SDS011;38624;53.242;6.974;2023-04-07T14:38:12;12.38;;;9.45;;
52730;SDS011;38624;53.242;6.974;2023-04-07T14:40:39;11.98;;;8.55;;
52730;SDS011;38624;53.242;6.974;2023-04-07T14:43:05;12.52;;;8.45;;
52730;SDS011;38624;53.242;6.974;2023-04-07T14:45:32;10.02;;;8.32;;
52730;SDS011;38624;53.242;6.974;2023-04-07T14:47:58;10.82;;;9.25;;
52730;SDS011;38624;53.242;6.974;2023-04-07T14:50:24;10.45;;;8.73;;
52730;SDS011;38624;53.242;6.974;2023-04-07T14:52:51;11.63;;;8.65;;
52730;SDS011;38624;53.242;6.974;2023-04-07T14:57:43;10.05;;;8.23;;
52730;SDS011;38624;53.242;6.974;2023-04-07T15:00:09;12.10;;;8.75;;
52730;SDS011;38624;53.242;6.974;2023-04-07T15:05:01;10.48;;;8.95;;
52730;SDS011;38624;53.242;6.974;2023-04-07T15:07:27;10.63;;;8.07;;
52730;SDS011;38624;53.242;6.974;2023-04-07T15:09:53;9.95;;;8.45;;
52730;SDS011;38624;53.242;6.974;2023-04-07T15:12:18;9.98;;;7.90;;
52730;SDS011;38624;53.242;6.974;2023-04-07T15:14:44;10.18;;;7.95;;
52730;SDS011;38624;53.242;6.974;2023-04-07T15:17:10;10.35;;;9.25;;
52730;SDS011;38624;53.242;6.974;2023-04-07T15:19:36;10.35;;;8.70;;
52730;SDS011;38624;53.242;6.974;2023-04-07T15:22:02;10.82;;;8.18;;